Florence, Oregon
Current Conditions -  °F | °C
As of 6:35 AM on Saturday 22 Nov 2014 (Local Time) from KOTH Reporting Station
Broken Clouds Broken Clouds  
Wind Chill: 55°   Ceiling: 8000
Heat Index: 55°   Visibility: 10mi
Dew Point: 52°   Wind: 17mph
Humidity: 88%   Direction: 270°W
Pressure: 29.87"   Gusts: NA
Location:  43.97°N, 124.1°W
Report Text: KOTH 221435Z 27015KT 10SM SCT027 BKN080 13/11 A2987 RMK AO1
Loading
Personal Weather Stations






























Interactive Weather Map New forecast layout! Learn more

10-Day Weather Forecast

Advertisements
Track Severe Weather on mobile